createdAt,value
2022-09-29T00:00:49.768Z,99351.00
2022-09-29T00:03:19.218Z,99349.38
2022-09-29T00:05:51.784Z,99343.59
2022-09-29T00:08:21.039Z,99347.34
2022-09-29T00:10:48.740Z,99351.09
2022-09-29T00:13:17.804Z,99349.66
2022-09-29T00:15:57.101Z,99348.03
2022-09-29T00:18:26.478Z,99354.72
2022-09-29T00:20:58.506Z,99356.56
2022-09-29T00:23:26.908Z,99346.44
2022-09-29T00:26:02.469Z,99347.72
2022-09-29T00:28:31.520Z,99351.72
2022-09-29T00:31:01.082Z,99358.38
2022-09-29T00:33:31.962Z,99349.25
2022-09-29T00:36:05.302Z,99353.22
2022-09-29T00:38:34.363Z,99351.78
2022-09-29T00:41:02.504Z,99356.56
2022-09-29T00:43:53.223Z,99361.84
2022-09-29T00:46:27.717Z,99361.47
2022-09-29T00:49:02.482Z,99358.38
2022-09-29T00:51:33.421Z,99358.47
2022-09-29T00:54:02.376Z,99350.34
2022-09-29T00:56:31.912Z,99360.31
2022-09-29T00:59:03.714Z,99353.88
2022-09-29T01:01:33.276Z,99359.50
2022-09-29T01:04:05.827Z,99359.34
2022-09-29T01:06:39.074Z,99361.47
2022-09-29T01:09:09.021Z,99359.56
2022-09-29T01:11:37.003Z,99355.81
2022-09-29T01:14:07.774Z,99358.97
2022-09-29T01:16:37.503Z,99356.47
2022-09-29T01:19:09.955Z,99358.38
2022-09-29T01:21:45.771Z,99360.47
2022-09-29T01:24:58.056Z,99361.53
2022-09-29T01:28:04.421Z,99355.06
2022-09-29T01:30:47.904Z,99358.81
2022-09-29T01:33:28.790Z,99360.91
2022-09-29T01:36:04.325Z,99367.13
2022-09-29T01:38:52.626Z,99366.31
2022-09-29T01:41:28.942Z,99377.94
2022-09-29T01:44:03.773Z,99367.13
2022-09-29T01:46:37.570Z,99376.50
2022-09-29T01:49:07.879Z,99386.72
2022-09-29T01:51:42.115Z,99373.66
2022-09-29T01:54:16.297Z,99376.78
2022-09-29T01:56:50.434Z,99367.66
2022-09-29T01:59:22.826Z,99369.72
2022-09-29T02:02:00.079Z,99361.63
2022-09-29T02:04:33.425Z,99364.78
2022-09-29T02:07:05.074Z,99366.91
2022-09-29T02:09:37.546Z,99373.09
2022-09-29T02:12:07.257Z,99369.78
2022-09-29T02:14:41.066Z,99363.81
2022-09-29T02:17:19.330Z,99365.28
2022-09-29T02:19:48.975Z,99365.94
2022-09-29T02:22:16.884Z,99367.88
2022-09-29T02:24:44.828Z,99361.63
2022-09-29T02:27:13.409Z,99362.31
2022-09-29T02:29:41.699Z,99362.72
2022-09-29T02:32:12.468Z,99368.00
2022-09-29T02:34:45.960Z,99366.91
2022-09-29T02:37:34.555Z,99376.09
2022-09-29T02:40:14.995Z,99370.06
2022-09-29T02:42:53.470Z,99376.16
2022-09-29T02:45:30.049Z,99373.47
2022-09-29T02:48:14.852Z,99371.38
2022-09-29T02:50:56.521Z,99381.44
2022-09-29T02:53:38.009Z,99382.53
2022-09-29T02:56:12.858Z,99381.09
2022-09-29T02:58:48.533Z,99387.31
2022-09-29T03:01:16.527Z,99386.88
2022-09-29T03:03:45.807Z,99387.25
2022-09-29T03:06:14.828Z,99391.41
2022-09-29T03:08:42.459Z,99393.50
2022-09-29T03:11:10.177Z,99386.63
2022-09-29T03:13:37.807Z,99384.53
2022-09-29T03:16:05.496Z,99396.16
2022-09-29T03:18:33.202Z,99395.31
2022-09-29T03:21:02.506Z,99394.72
2022-09-29T03:23:30.183Z,99399.94
2022-09-29T03:25:57.820Z,99399.72
2022-09-29T03:28:25.538Z,99395.13
2022-09-29T03:30:55.313Z,99393.50
2022-09-29T03:33:22.981Z,99395.13
2022-09-29T03:35:50.654Z,99410.72
2022-09-29T03:38:19.588Z,99399.09
2022-09-29T03:40:47.260Z,99388.09
2022-09-29T03:43:14.909Z,99397.63
2022-09-29T03:45:49.224Z,99394.53
2022-09-29T03:48:19.646Z,99410.78
2022-09-29T03:50:51.303Z,99408.47
2022-09-29T03:53:21.514Z,99411.63
2022-09-29T03:55:50.779Z,99404.78
2022-09-29T03:58:19.644Z,99409.41
2022-09-29T04:00:49.693Z,99411.44
2022-09-29T04:03:17.483Z,99411.47
2022-09-29T04:05:47.268Z,99411.03
2022-09-29T04:08:16.054Z,99418.72
2022-09-29T04:10:49.339Z,99413.53
2022-09-29T04:13:20.080Z,99419.13
2022-09-29T04:15:48.168Z,99423.06
2022-09-29T04:18:16.101Z,99422.22
2022-09-29T04:20:43.802Z,99417.25
2022-09-29T04:23:12.667Z,99428.03
2022-09-29T04:25:40.338Z,99432.16
2022-09-29T04:28:09.396Z,99428.84
2022-09-29T04:30:37.094Z,99432.75
2022-09-29T04:33:05.059Z,99424.59
2022-09-29T04:35:36.774Z,99444.50
2022-09-29T04:38:04.953Z,99435.53
2022-09-29T04:40:32.690Z,99441.09
2022-09-29T04:43:00.419Z,99439.03
2022-09-29T04:45:30.445Z,99439.03
2022-09-29T04:47:58.295Z,99439.47
2022-09-29T04:50:26.002Z,99440.72
2022-09-29T04:52:54.089Z,99441.38
2022-09-29T04:55:21.779Z,99438.47
2022-09-29T04:57:49.611Z,99435.81
2022-09-29T05:00:17.407Z,99443.31
2022-09-29T05:02:49.828Z,99446.63
2022-09-29T05:05:18.235Z,99446.22
2022-09-29T05:07:45.966Z,99453.25
2022-09-29T05:10:13.633Z,99457.44
2022-09-29T05:12:41.287Z,99451.59
2022-09-29T05:17:57.314Z,99461.13
2022-09-29T05:20:25.007Z,99459.50
2022-09-29T05:22:52.858Z,99458.66
2022-09-29T05:25:20.533Z,99465.72
2022-09-29T05:27:48.210Z,99466.16
2022-09-29T05:30:16.074Z,99464.72
2022-09-29T05:32:44.536Z,99460.94
2022-09-29T05:35:13.628Z,99467.19
2022-09-29T05:37:41.370Z,99466.97
2022-09-29T05:40:10.158Z,99472.59
2022-09-29T05:42:37.841Z,99466.97
2022-09-29T05:45:07.409Z,99466.97
2022-09-29T05:47:37.662Z,99470.34
2022-09-29T05:50:06.093Z,99471.75
2022-09-29T05:52:35.125Z,99475.28
2022-09-29T05:55:02.941Z,99469.66
2022-09-29T05:57:30.738Z,99473.38
2022-09-29T05:59:58.838Z,99476.06
2022-09-29T06:02:26.608Z,99475.03
2022-09-29T06:04:54.576Z,99474.81
2022-09-29T06:07:22.460Z,99470.84
2022-09-29T06:09:51.891Z,99473.97
2022-09-29T06:12:21.808Z,99471.03
2022-09-29T06:14:49.720Z,99478.91
2022-09-29T06:17:19.730Z,99479.34
2022-09-29T06:19:47.422Z,99475.19
2022-09-29T06:22:15.153Z,99482.66
2022-09-29T06:24:42.829Z,99484.72
2022-09-29T06:27:12.049Z,99481.56
2022-09-29T06:29:39.780Z,99487.19
2022-09-29T06:32:07.517Z,99482.44
2022-09-29T06:34:35.323Z,99492.38
2022-09-29T06:37:20.892Z,99490.69
2022-09-29T06:39:48.730Z,99494.41
2022-09-29T06:42:18.327Z,99498.31
2022-09-29T06:44:45.989Z,99496.44
2022-09-29T06:47:13.656Z,99496.16
2022-09-29T06:49:45.942Z,99499.03
2022-09-29T06:52:21.505Z,99498.59
2022-09-29T06:54:49.456Z,99489.00
2022-09-29T06:57:18.913Z,99497.72
2022-09-29T06:59:46.596Z,99489.34
2022-09-29T07:02:14.739Z,99493.31
2022-09-29T07:04:42.443Z,99493.97
2022-09-29T07:07:10.103Z,99496.28
2022-09-29T07:09:37.768Z,99490.03
2022-09-29T07:12:06.072Z,99489.22
2022-09-29T07:14:36.259Z,99495.03
2022-09-29T07:17:04.199Z,99496.00
2022-09-29T07:19:32.512Z,99501.53
2022-09-29T07:22:00.251Z,99508.31
2022-09-29T07:24:28.083Z,99505.44
2022-09-29T07:26:55.768Z,99501.88
2022-09-29T07:29:23.702Z,99505.84
2022-09-29T07:31:55.255Z,99511.63
2022-09-29T07:34:23.107Z,99512.84
2022-09-29T07:36:51.054Z,99520.16
2022-09-29T07:39:20.993Z,99524.19
2022-09-29T07:41:48.785Z,99522.09
2022-09-29T07:44:16.742Z,99521.88
2022-09-29T07:46:44.470Z,99525.28
2022-09-29T07:49:13.491Z,99527.63
2022-09-29T07:51:41.116Z,99530.44
2022-09-29T07:54:08.951Z,99532.66
2022-09-29T07:56:36.756Z,99538.94
2022-09-29T07:59:05.349Z,99540.72
2022-09-29T08:01:33.898Z,99539.16
2022-09-29T08:04:02.406Z,99537.81
2022-09-29T08:06:32.505Z,99541.69
2022-09-29T08:09:04.643Z,99542.13
2022-09-29T08:11:33.464Z,99543.28
2022-09-29T08:14:02.286Z,99542.00
2022-09-29T08:16:30.482Z,99548.09
2022-09-29T08:18:58.498Z,99554.50
2022-09-29T08:21:26.903Z,99551.94
2022-09-29T08:23:55.994Z,99546.06
2022-09-29T08:26:39.027Z,99557.66
2022-09-29T08:29:13.226Z,99553.09
2022-09-29T08:31:44.201Z,99556.44
2022-09-29T08:34:13.302Z,99558.06
2022-09-29T08:36:41.336Z,99558.50
2022-09-29T08:39:12.838Z,99554.69
2022-09-29T08:41:59.345Z,99556.25
2022-09-29T08:44:39.275Z,99564.41
2022-09-29T08:47:19.165Z,99566.91
2022-09-29T08:49:49.182Z,99572.13
2022-09-29T08:52:21.518Z,99572.59
2022-09-29T08:54:54.202Z,99573.69
2022-09-29T08:57:21.869Z,99572.31
2022-09-29T08:59:54.836Z,99568.59
2022-09-29T09:02:53.108Z,99578.66
2022-09-29T09:05:35.206Z,99570.41
2022-09-29T09:08:07.951Z,99573.38
2022-09-29T09:10:44.408Z,99571.13
2022-09-29T09:13:26.241Z,99576.66
2022-09-29T09:16:06.008Z,99578.09
2022-09-29T09:18:47.600Z,99585.66
2022-09-29T09:21:19.602Z,99578.16
2022-09-29T09:23:56.946Z,99581.31
2022-09-29T09:26:36.109Z,99586.09
2022-09-29T09:29:06.691Z,99588.22
2022-09-29T09:31:40.709Z,99587.41
2022-09-29T09:34:15.806Z,99593.53
2022-09-29T09:36:56.885Z,99591.88
2022-09-29T09:39:35.430Z,99597.78
2022-09-29T09:42:14.074Z,99594.44
2022-09-29T09:44:46.176Z,99595.56
2022-09-29T09:47:27.640Z,99598.03
2022-09-29T09:49:59.011Z,99604.75
2022-09-29T09:52:34.817Z,99601.91
2022-09-29T09:55:06.845Z,99598.97
2022-09-29T09:57:52.527Z,99598.84
2022-09-29T10:00:24.263Z,99601.91
2022-09-29T10:02:56.583Z,99602.59
2022-09-29T10:05:37.685Z,99605.31
2022-09-29T10:08:07.636Z,99605.31
2022-09-29T10:10:47.570Z,99609.13
2022-09-29T10:13:28.672Z,99599.09
2022-09-29T10:15:59.407Z,99597.44
2022-09-29T10:18:31.872Z,99594.94
2022-09-29T10:20:59.598Z,99600.84
2022-09-29T10:23:30.858Z,99599.44
2022-09-29T10:26:02.795Z,99596.00
2022-09-29T10:28:41.519Z,99599.56
2022-09-29T10:31:27.722Z,99594.00
2022-09-29T10:33:59.062Z,99591.28
2022-09-29T10:36:30.364Z,99601.19
2022-09-29T10:39:02.396Z,99597.53
2022-09-29T10:41:31.434Z,99601.75
2022-09-29T10:44:20.579Z,99605.91
2022-09-29T10:46:53.795Z,99601.16
2022-09-29T10:49:23.243Z,99602.41
2022-09-29T10:51:58.054Z,99608.56
2022-09-29T10:54:27.277Z,99609.63
2022-09-29T10:56:56.528Z,99607.41
2022-09-29T10:59:26.865Z,99613.41
2022-09-29T11:01:58.287Z,99605.03
2022-09-29T11:04:30.312Z,99611.44
2022-09-29T11:07:07.415Z,99614.28
2022-09-29T11:09:43.212Z,99609.66
2022-09-29T11:12:28.261Z,99611.66
2022-09-29T11:14:57.336Z,99608.94
2022-09-29T11:17:27.417Z,99616.59
2022-09-29T11:19:58.171Z,99618.47
2022-09-29T11:22:57.288Z,99618.72
2022-09-29T11:26:12.698Z,99617.38
2022-09-29T11:29:09.536Z,99621.28
2022-09-29T11:31:54.425Z,99622.94
2022-09-29T11:35:07.487Z,99620.09
2022-09-29T11:37:56.047Z,99622.13
2022-09-29T11:40:34.544Z,99626.56
2022-09-29T11:43:21.852Z,99627.06
2022-09-29T11:46:01.357Z,99636.50
2022-09-29T11:49:07.811Z,99641.69
2022-09-29T11:51:55.465Z,99635.81
2022-09-29T11:54:40.028Z,99640.50
2022-09-29T11:57:19.395Z,99639.09
2022-09-29T12:00:04.213Z,99639.59
2022-09-29T12:03:22.041Z,99639.34
2022-09-29T12:06:24.764Z,99633.31
2022-09-29T12:09:03.630Z,99643.13
2022-09-29T12:11:54.884Z,99645.84
2022-09-29T12:14:40.544Z,99644.75
2022-09-29T12:17:15.479Z,99639.78
2022-09-29T12:19:46.527Z,99641.06
2022-09-29T12:22:19.787Z,99642.75
2022-09-29T12:24:52.527Z,99638.84
2022-09-29T12:27:26.082Z,99637.44
2022-09-29T12:29:59.369Z,99630.91
2022-09-29T12:32:32.484Z,99637.00
2022-09-29T12:35:06.967Z,99639.31
2022-09-29T12:37:44.458Z,99632.16
2022-09-29T12:40:20.751Z,99621.28
2022-09-29T12:42:59.542Z,99626.94
2022-09-29T12:45:35.128Z,99625.59
2022-09-29T12:48:16.078Z,99622.44
2022-09-29T12:50:49.263Z,99632.72
2022-09-29T12:53:24.489Z,99624.47
2022-09-29T12:55:59.716Z,99624.91
2022-09-29T12:58:37.165Z,99624.44
2022-09-29T13:01:22.599Z,99623.22
2022-09-29T13:04:15.348Z,99628.00
2022-09-29T13:07:01.177Z,99630.69
2022-09-29T13:09:56.272Z,99633.53
2022-09-29T13:12:52.672Z,99634.91
2022-09-29T13:15:34.551Z,99631.56
2022-09-29T13:18:21.123Z,99631.56
2022-09-29T13:21:07.590Z,99630.41
2022-09-29T13:23:49.808Z,99632.28
2022-09-29T13:26:50.858Z,99634.75
2022-09-29T13:29:22.597Z,99645.09
2022-09-29T13:31:52.382Z,99648.56
2022-09-29T13:34:28.872Z,99640.97
2022-09-29T13:37:07.171Z,99651.06
2022-09-29T13:39:35.577Z,99643.34
2022-09-29T13:42:38.707Z,99639.56
2022-09-29T13:45:41.587Z,99645.91
2022-09-29T13:48:38.238Z,99639.72
2022-09-29T13:51:39.386Z,99635.97
2022-09-29T13:54:31.031Z,99633.41
2022-09-29T13:57:27.611Z,99639.38
2022-09-29T14:00:20.322Z,99633.16
2022-09-29T14:03:01.006Z,99643.44
2022-09-29T14:05:42.099Z,99643.94
2022-09-29T14:08:16.970Z,99637.91
2022-09-29T14:10:49.181Z,99640.81
2022-09-29T14:13:24.005Z,99639.97
2022-09-29T14:16:15.836Z,99650.53
2022-09-29T14:18:47.937Z,99651.50
2022-09-29T14:21:50.512Z,99651.69
2022-09-29T14:24:49.351Z,99648.63
2022-09-29T14:27:26.152Z,99646.50
2022-09-29T14:30:01.916Z,99653.25
2022-09-29T14:32:42.262Z,99656.53
2022-09-29T14:35:19.896Z,99652.50
2022-09-29T14:38:01.868Z,99657.66
2022-09-29T14:40:30.524Z,99660.13
2022-09-29T14:43:13.552Z,99659.22
2022-09-29T14:46:34.447Z,99667.06
2022-09-29T14:49:44.418Z,99671.00
2022-09-29T14:52:21.723Z,99675.28
2022-09-29T14:55:04.727Z,99669.00
2022-09-29T14:57:54.158Z,99674.44
2022-09-29T15:00:23.990Z,99677.44
2022-09-29T15:02:59.624Z,99683.13
2022-09-29T15:05:36.028Z,99674.88
2022-09-29T15:08:22.333Z,99679.84
2022-09-29T15:10:51.192Z,99673.81
2022-09-29T15:13:24.737Z,99673.22
2022-09-29T15:15:58.982Z,99677.84
2022-09-29T15:18:39.113Z,99677.75
2022-09-29T15:21:18.523Z,99683.69
2022-09-29T15:24:22.647Z,99676.03
2022-09-29T15:26:50.590Z,99684.41
2022-09-29T15:29:20.391Z,99688.69
2022-09-29T15:31:49.533Z,99687.03
2022-09-29T15:34:20.865Z,99690.84
2022-09-29T15:36:53.412Z,99693.22
2022-09-29T15:39:43.574Z,99697.25
2022-09-29T15:42:16.375Z,99700.50
2022-09-29T15:44:55.042Z,99702.38
2022-09-29T15:47:28.134Z,99700.69
2022-09-29T15:49:56.178Z,99707.25
2022-09-29T15:52:27.405Z,99704.16
2022-09-29T15:54:58.167Z,99715.06
2022-09-29T15:57:49.907Z,99719.69
2022-09-29T16:00:45.599Z,99721.56
2022-09-29T16:03:18.210Z,99725.34
2022-09-29T16:05:58.723Z,99729.16
2022-09-29T16:08:31.320Z,99730.22
2022-09-29T16:11:04.310Z,99732.81
2022-09-29T16:13:35.162Z,99735.78
2022-09-29T16:16:05.649Z,99733.06
2022-09-29T16:18:41.678Z,99737.91
2022-09-29T16:21:13.141Z,99742.53
2022-09-29T16:23:45.879Z,99749.03
2022-09-29T16:26:18.230Z,99751.19
2022-09-29T16:29:23.641Z,99753.56
2022-09-29T16:31:54.778Z,99754.03
2022-09-29T16:34:31.557Z,99756.72
2022-09-29T16:37:01.653Z,99760.75
2022-09-29T16:39:33.891Z,99764.56
2022-09-29T16:42:05.203Z,99767.75
2022-09-29T16:44:36.104Z,99766.13
2022-09-29T16:47:13.507Z,99773.69
2022-09-29T16:49:47.822Z,99770.97
2022-09-29T16:52:18.775Z,99775.56
2022-09-29T16:54:48.898Z,99777.69
2022-09-29T16:57:21.928Z,99775.78
2022-09-29T16:59:52.438Z,99788.31
2022-09-29T17:02:22.412Z,99785.59
2022-09-29T17:04:50.799Z,99789.16
2022-09-29T17:07:20.630Z,99794.63
2022-09-29T17:09:52.471Z,99793.75
2022-09-29T17:12:20.200Z,99805.94
2022-09-29T17:14:50.002Z,99801.00
2022-09-29T17:17:22.409Z,99798.53
2022-09-29T17:19:50.209Z,99804.19
2022-09-29T17:22:29.268Z,99808.63
2022-09-29T17:24:59.559Z,99812.91
2022-09-29T17:27:45.666Z,99813.38
2022-09-29T17:30:18.467Z,99816.09
2022-09-29T17:32:46.968Z,99825.56
2022-09-29T17:35:15.565Z,99821.41
2022-09-29T17:37:46.711Z,99818.09
2022-09-29T17:40:22.941Z,99821.91
2022-09-29T17:42:51.184Z,99827.78
2022-09-29T17:45:21.889Z,99831.59
2022-09-29T17:47:49.669Z,99830.06
2022-09-29T17:50:23.366Z,99836.91
2022-09-29T17:52:51.201Z,99839.38
2022-09-29T17:55:22.835Z,99843.63
2022-09-29T17:57:53.184Z,99838.53
2022-09-29T18:00:23.130Z,99844.06
2022-09-29T18:02:51.155Z,99851.91
2022-09-29T18:05:22.589Z,99849.06
2022-09-29T18:07:50.873Z,99846.56
2022-09-29T18:10:26.401Z,99850.44
2022-09-29T18:12:54.804Z,99851.47
2022-09-29T18:15:23.616Z,99850.28
2022-09-29T18:17:56.649Z,99857.00
2022-09-29T18:20:25.703Z,99846.38
2022-09-29T18:22:53.485Z,99865.38
2022-09-29T18:25:22.477Z,99855.59
2022-09-29T18:27:50.416Z,99856.88
2022-09-29T18:30:20.503Z,99860.06
2022-09-29T18:32:49.719Z,99856.34
2022-09-29T18:35:21.039Z,99866.41
2022-09-29T18:37:49.075Z,99864.97
2022-09-29T18:40:18.515Z,99872.31
2022-09-29T18:42:51.962Z,99868.97
2022-09-29T18:45:23.183Z,99869.44
2022-09-29T18:47:52.378Z,99867.41
2022-09-29T18:50:21.877Z,99877.69
2022-09-29T18:52:50.750Z,99877.06
2022-09-29T18:55:21.390Z,99882.88
2022-09-29T18:57:51.240Z,99888.22
2022-09-29T19:00:21.277Z,99886.94
2022-09-29T19:02:50.289Z,99890.22
2022-09-29T19:05:21.299Z,99896.97
2022-09-29T19:07:50.905Z,99900.25
2022-09-29T19:10:20.471Z,99894.84
2022-09-29T19:12:51.192Z,99904.88
2022-09-29T19:15:21.030Z,99905.47
2022-09-29T19:17:50.245Z,99907.81
2022-09-29T19:20:18.968Z,99909.47
2022-09-29T19:22:46.754Z,99917.38
2022-09-29T19:25:17.319Z,99922.22
2022-09-29T19:27:46.156Z,99921.41
2022-09-29T19:30:17.356Z,99931.41
2022-09-29T19:32:45.275Z,99929.16
2022-09-29T19:35:15.614Z,99930.81
2022-09-29T19:37:43.903Z,99929.84
2022-09-29T19:40:15.498Z,99931.72
2022-09-29T19:42:43.223Z,99940.38
2022-09-29T19:45:11.025Z,99938.16
2022-09-29T19:47:40.248Z,99943.66
2022-09-29T19:50:26.596Z,99942.91
2022-09-29T19:52:54.790Z,99944.84
2022-09-29T19:55:23.404Z,99950.13
2022-09-29T19:57:51.137Z,99953.25
2022-09-29T20:00:22.203Z,99955.16
2022-09-29T20:02:52.349Z,99958.28
2022-09-29T20:05:20.158Z,99959.34
2022-09-29T20:07:48.268Z,99954.38
2022-09-29T20:10:17.369Z,99957.31
2022-09-29T20:12:46.448Z,99969.06
2022-09-29T20:15:14.497Z,99958.28
2022-09-29T20:17:44.159Z,99966.19
2022-09-29T20:20:13.515Z,99968.31
2022-09-29T20:22:41.207Z,99970.44
2022-09-29T20:25:10.371Z,99970.69
2022-09-29T20:27:39.321Z,99965.25
2022-09-29T20:30:08.723Z,99974.31
2022-09-29T20:32:36.747Z,99977.09
2022-09-29T20:35:04.922Z,99982.44
2022-09-29T20:37:35.128Z,99983.47
2022-09-29T20:40:03.457Z,99981.56
2022-09-29T20:42:34.059Z,99989.69
2022-09-29T20:45:01.724Z,99995.75
2022-09-29T20:47:30.305Z,99994.84
2022-09-29T20:49:57.963Z,99986.69
2022-09-29T20:52:25.655Z,99996.25
2022-09-29T20:54:55.326Z,99995.13
2022-09-29T20:57:22.976Z,99996.41
2022-09-29T20:59:50.729Z,99998.13
2022-09-29T21:02:18.449Z,100003.53
2022-09-29T21:04:46.136Z,100005.03
2022-09-29T21:07:27.882Z,100011.75
2022-09-29T21:09:57.184Z,100005.91
2022-09-29T21:12:24.851Z,100017.59
2022-09-29T21:14:52.562Z,100014.28
2022-09-29T21:17:20.264Z,100017.00
2022-09-29T21:19:48.086Z,100015.31
2022-09-29T21:22:15.809Z,100015.09
2022-09-29T21:24:44.092Z,100021.13
2022-09-29T21:27:13.366Z,100027.16
2022-09-29T21:29:41.135Z,100025.94
2022-09-29T21:32:09.010Z,100027.22
2022-09-29T21:34:36.709Z,100033.25
2022-09-29T21:37:04.372Z,100036.19
2022-09-29T21:39:32.015Z,100037.47
2022-09-29T21:41:59.721Z,100039.31
2022-09-29T21:44:28.828Z,100041.63
2022-09-29T21:46:56.671Z,100039.72
2022-09-29T21:49:24.420Z,100044.75
2022-09-29T21:51:52.478Z,100045.81
2022-09-29T21:54:22.198Z,100049.34
2022-09-29T21:56:51.063Z,100049.13
2022-09-29T21:59:21.480Z,100050.16
2022-09-29T22:01:52.037Z,100046.69
2022-09-29T22:04:21.101Z,100043.97
2022-09-29T22:06:49.178Z,100052.69
2022-09-29T22:09:19.416Z,100057.69
2022-09-29T22:11:49.708Z,100050.38
2022-09-29T22:14:17.654Z,100053.94
2022-09-29T22:16:45.663Z,100061.47
2022-09-29T22:19:23.758Z,100061.69
2022-09-29T22:21:52.609Z,100061.72
2022-09-29T22:24:20.338Z,100056.91
2022-09-29T22:26:48.010Z,100059.84
2022-09-29T22:29:15.846Z,100059.03
2022-09-29T22:31:43.663Z,100064.44
2022-09-29T22:34:11.726Z,100064.44
2022-09-29T22:36:40.749Z,100067.75
2022-09-29T22:39:09.090Z,100065.03
2022-09-29T22:41:39.526Z,100065.03
2022-09-29T22:44:08.188Z,100067.97
2022-09-29T22:46:35.997Z,100070.91
2022-09-29T22:49:04.264Z,100069.69
2022-09-29T22:51:32.074Z,100065.53
2022-09-29T22:54:01.256Z,100070.13
2022-09-29T22:56:29.362Z,100072.22
2022-09-29T22:59:00.434Z,100068.47
2022-09-29T23:01:28.288Z,100076.81
2022-09-29T23:03:56.105Z,100072.84
2022-09-29T23:06:23.889Z,100076.97
2022-09-29T23:08:53.783Z,100077.38
2022-09-29T23:11:23.468Z,100073.63
2022-09-29T23:13:52.773Z,100081.91
2022-09-29T23:16:20.728Z,100085.22
2022-09-29T23:18:54.063Z,100080.03
2022-09-29T23:21:22.846Z,100077.53
2022-09-29T23:23:54.688Z,100081.53
2022-09-29T23:26:24.405Z,100076.53
2022-09-29T23:28:52.620Z,100080.34
2022-09-29T23:31:20.806Z,100075.97
2022-09-29T23:33:52.859Z,100085.13
2022-09-29T23:36:20.674Z,100080.16
2022-09-29T23:39:06.299Z,100081.81
2022-09-29T23:41:35.624Z,100091.81
2022-09-29T23:44:06.289Z,100089.97
2022-09-29T23:46:36.809Z,100088.28
2022-09-29T23:49:09.834Z,100090.19
2022-09-29T23:51:39.315Z,100087.66
2022-09-29T23:54:08.210Z,100087.88
2022-09-29T23:56:37.601Z,100095.81
2022-09-29T23:59:06.103Z,100100.03
